sensor_id;sensor_type;location;lat;lon;timestamp;temperature;humidity
46335;DHT22;32051;48.882;9.210;2023-06-10T10:57:15;30.80;82.70
46335;DHT22;32051;48.882;9.210;2023-06-10T11:02:16;31.10;84.80
46335;DHT22;32051;48.882;9.210;2023-06-10T11:04:48;30.90;82.90
46335;DHT22;32051;48.882;9.210;2023-06-10T11:07:14;30.90;83.00
46335;DHT22;32051;48.882;9.210;2023-06-10T11:10:06;31.10;84.10
46335;DHT22;32051;48.882;9.210;2023-06-10T11:30:44;31.50;83.50
46335;DHT22;32051;48.882;9.210;2023-06-10T11:33:16;31.20;79.40
46335;DHT22;32051;48.882;9.210;2023-06-10T11:40:34;32.90;79.10
46335;DHT22;32051;48.882;9.210;2023-06-10T11:43:03;33.50;75.70
46335;DHT22;32051;48.882;9.210;2023-06-10T11:45:29;33.70;74.90
46335;DHT22;32051;48.882;9.210;2023-06-10T11:47:58;33.70;75.00
46335;DHT22;32051;48.882;9.210;2023-06-10T11:50:31;34.20;74.50
46335;DHT22;32051;48.882;9.210;2023-06-10T11:52:57;34.60;74.60
46335;DHT22;32051;48.882;9.210;2023-06-10T12:00:23;33.40;73.40
46335;DHT22;32051;48.882;9.210;2023-06-10T12:02:59;33.60;74.00
46335;DHT22;32051;48.882;9.210;2023-06-10T12:05:24;34.30;76.20
46335;DHT22;32051;48.882;9.210;2023-06-10T12:08:08;34.90;70.00
46335;DHT22;32051;48.882;9.210;2023-06-10T12:10:42;34.70;70.30
46335;DHT22;32051;48.882;9.210;2023-06-10T12:13:09;35.10;70.20
46335;DHT22;32051;48.882;9.210;2023-06-10T12:15:35;35.40;90.70
46335;DHT22;32051;48.882;9.210;2023-06-10T12:18:01;35.20;91.10
46335;DHT22;32051;48.882;9.210;2023-06-10T12:20:29;35.60;95.70
46335;DHT22;32051;48.882;9.210;2023-06-10T12:22:55;36.00;68.60
46335;DHT22;32051;48.882;9.210;2023-06-10T12:25:26;36.20;65.00
46335;DHT22;32051;48.882;9.210;2023-06-10T12:27:53;35.70;66.60
46335;DHT22;32051;48.882;9.210;2023-06-10T12:30:20;36.00;66.30
46335;DHT22;32051;48.882;9.210;2023-06-10T12:32:47;35.70;66.10
46335;DHT22;32051;48.882;9.210;2023-06-10T12:38:03;34.10;65.40
46335;DHT22;32051;48.882;9.210;2023-06-10T12:40:32;33.60;66.90
46335;DHT22;32051;48.882;9.210;2023-06-10T12:45:29;33.90;68.60
46335;DHT22;32051;48.882;9.210;2023-06-10T12:48:05;35.00;68.20
46335;DHT22;32051;48.882;9.210;2023-06-10T12:50:32;35.70;65.30
46335;DHT22;32051;48.882;9.210;2023-06-10T13:07:37;33.70;65.00
46335;DHT22;32051;48.882;9.210;2023-06-10T13:10:02;33.60;68.50
46335;DHT22;32051;48.882;9.210;2023-06-10T13:12:28;34.30;63.60
46335;DHT22;32051;48.882;9.210;2023-06-10T13:14:54;34.50;64.90
46335;DHT22;32051;48.882;9.210;2023-06-10T13:17:20;35.30;64.90
46335;DHT22;32051;48.882;9.210;2023-06-10T13:19:46;35.80;62.80
46335;DHT22;32051;48.882;9.210;2023-06-10T13:22:14;36.40;62.00
46335;DHT22;32051;48.882;9.210;2023-06-10T13:36:54;34.20;62.80
46335;DHT22;32051;48.882;9.210;2023-06-10T13:39:20;33.20;65.90
46335;DHT22;32051;48.882;9.210;2023-06-10T13:41:45;33.10;65.50
46335;DHT22;32051;48.882;9.210;2023-06-10T13:49:03;34.10;65.10
46335;DHT22;32051;48.882;9.210;2023-06-10T13:51:29;34.60;64.40
46335;DHT22;32051;48.882;9.210;2023-06-10T13:53:55;35.20;63.20
46335;DHT22;32051;48.882;9.210;2023-06-10T13:56:20;35.80;62.50
46335;DHT22;32051;48.882;9.210;2023-06-10T13:58:46;36.40;63.10
46335;DHT22;32051;48.882;9.210;2023-06-10T14:01:11;37.00;64.10
46335;DHT22;32051;48.882;9.210;2023-06-10T14:03:37;37.30;60.00
46335;DHT22;32051;48.882;9.210;2023-06-10T14:06:03;37.60;61.30
46335;DHT22;32051;48.882;9.210;2023-06-10T14:08:29;37.80;59.30
46335;DHT22;32051;48.882;9.210;2023-06-10T14:13:21;38.10;59.70
46335;DHT22;32051;48.882;9.210;2023-06-10T14:15:46;38.70;57.60
46335;DHT22;32051;48.882;9.210;2023-06-10T14:18:12;39.00;58.90
46335;DHT22;32051;48.882;9.210;2023-06-10T14:20:38;38.90;57.20
46335;DHT22;32051;48.882;9.210;2023-06-10T14:23:03;38.60;58.10
46335;DHT22;32051;48.882;9.210;2023-06-10T14:25:29;38.60;57.90
46335;DHT22;32051;48.882;9.210;2023-06-10T14:27:55;38.70;58.30
46335;DHT22;32051;48.882;9.210;2023-06-10T14:30:21;38.80;57.30
46335;DHT22;32051;48.882;9.210;2023-06-10T14:32:46;38.80;57.20
46335;DHT22;32051;48.882;9.210;2023-06-10T14:35:12;38.80;58.10
46335;DHT22;32051;48.882;9.210;2023-06-10T14:37:38;38.80;56.20
46335;DHT22;32051;48.882;9.210;2023-06-10T14:40:04;38.80;56.30
46335;DHT22;32051;48.882;9.210;2023-06-10T14:42:30;38.80;56.60
46335;DHT22;32051;48.882;9.210;2023-06-10T14:44:57;38.80;56.10
46335;DHT22;32051;48.882;9.210;2023-06-10T14:47:23;38.80;56.40
46335;DHT22;32051;48.882;9.210;2023-06-10T14:49:49;38.70;56.00
46335;DHT22;32051;48.882;9.210;2023-06-10T14:52:15;38.70;55.90
46335;DHT22;32051;48.882;9.210;2023-06-10T14:59:34;38.60;56.80
46335;DHT22;32051;48.882;9.210;2023-06-10T15:02:00;38.40;55.40
46335;DHT22;32051;48.882;9.210;2023-06-10T15:04:27;38.40;56.00
46335;DHT22;32051;48.882;9.210;2023-06-10T15:06:53;38.30;56.50
46335;DHT22;32051;48.882;9.210;2023-06-10T15:09:19;38.00;56.70
46335;DHT22;32051;48.882;9.210;2023-06-10T15:11:45;37.80;57.00
46335;DHT22;32051;48.882;9.210;2023-06-10T15:14:10;37.60;57.20
46335;DHT22;32051;48.882;9.210;2023-06-10T15:16:36;37.20;56.20
46335;DHT22;32051;48.882;9.210;2023-06-10T15:19:02;36.90;56.10
46335;DHT22;32051;48.882;9.210;2023-06-10T15:21:29;36.60;57.00
46335;DHT22;32051;48.882;9.210;2023-06-10T15:23:55;35.40;58.50
46335;DHT22;32051;48.882;9.210;2023-06-10T15:31:13;33.80;60.20
